sensor_id;sensor_type;location;lat;lon;timestamp;temperature;humidity
11762;DHT22;5938;47.098;15.474;2022-10-16T00:00:37;8.60;99.90
11762;DHT22;5938;47.098;15.474;2022-10-16T00:04:43;8.50;99.90
11762;DHT22;5938;47.098;15.474;2022-10-16T00:08:47;8.50;99.90
11762;DHT22;5938;47.098;15.474;2022-10-16T00:12:50;8.60;99.90
11762;DHT22;5938;47.098;15.474;2022-10-16T00:16:54;8.60;99.90
11762;DHT22;5938;47.098;15.474;2022-10-16T00:21:03;8.70;99.90
11762;DHT22;5938;47.098;15.474;2022-10-16T00:25:07;8.80;99.90
11762;DHT22;5938;47.098;15.474;2022-10-16T00:29:11;8.80;99.90
11762;DHT22;5938;47.098;15.474;2022-10-16T00:33:14;8.90;99.90
11762;DHT22;5938;47.098;15.474;2022-10-16T00:37:19;8.90;99.90
11762;DHT22;5938;47.098;15.474;2022-10-16T00:41:24;8.90;99.90
11762;DHT22;5938;47.098;15.474;2022-10-16T00:45:28;9.00;99.90
11762;DHT22;5938;47.098;15.474;2022-10-16T00:49:31;9.00;99.90
11762;DHT22;5938;47.098;15.474;2022-10-16T00:53:36;8.90;99.90
11762;DHT22;5938;47.098;15.474;2022-10-16T00:57:40;8.90;99.90
11762;DHT22;5938;47.098;15.474;2022-10-16T01:01:44;8.90;99.90
11762;DHT22;5938;47.098;15.474;2022-10-16T01:05:51;8.90;99.90
11762;DHT22;5938;47.098;15.474;2022-10-16T01:10:05;8.90;99.90
11762;DHT22;5938;47.098;15.474;2022-10-16T01:14:16;8.90;99.90
11762;DHT22;5938;47.098;15.474;2022-10-16T01:18:29;8.70;99.90
11762;DHT22;5938;47.098;15.474;2022-10-16T01:22:47;8.60;99.90
11762;DHT22;5938;47.098;15.474;2022-10-16T01:27:17;8.60;99.90
11762;DHT22;5938;47.098;15.474;2022-10-16T01:31:26;8.40;99.90
11762;DHT22;5938;47.098;15.474;2022-10-16T01:35:34;8.40;99.90
11762;DHT22;5938;47.098;15.474;2022-10-16T01:39:40;8.40;99.90
11762;DHT22;5938;47.098;15.474;2022-10-16T01:43:50;8.40;99.90
11762;DHT22;5938;47.098;15.474;2022-10-16T01:47:56;8.40;99.90
11762;DHT22;5938;47.098;15.474;2022-10-16T01:52:09;8.40;99.90
11762;DHT22;5938;47.098;15.474;2022-10-16T01:56:15;8.50;99.90
11762;DHT22;5938;47.098;15.474;2022-10-16T02:00:23;8.50;99.90
11762;DHT22;5938;47.098;15.474;2022-10-16T02:04:29;8.60;99.90
11762;DHT22;5938;47.098;15.474;2022-10-16T02:08:34;8.70;99.90
11762;DHT22;5938;47.098;15.474;2022-10-16T02:12:40;8.70;99.90
11762;DHT22;5938;47.098;15.474;2022-10-16T02:16:46;8.80;99.90
11762;DHT22;5938;47.098;15.474;2022-10-16T02:20:53;8.70;99.90
11762;DHT22;5938;47.098;15.474;2022-10-16T02:25:01;8.70;99.90
11762;DHT22;5938;47.098;15.474;2022-10-16T02:29:10;8.90;99.90
11762;DHT22;5938;47.098;15.474;2022-10-16T02:33:17;8.90;99.90
11762;DHT22;5938;47.098;15.474;2022-10-16T02:37:22;8.80;99.90
11762;DHT22;5938;47.098;15.474;2022-10-16T02:41:25;8.90;99.90
11762;DHT22;5938;47.098;15.474;2022-10-16T02:45:29;8.80;99.90
11762;DHT22;5938;47.098;15.474;2022-10-16T02:49:33;8.70;99.90
11762;DHT22;5938;47.098;15.474;2022-10-16T02:53:37;8.70;99.90
11762;DHT22;5938;47.098;15.474;2022-10-16T02:57:40;8.60;99.90
11762;DHT22;5938;47.098;15.474;2022-10-16T03:01:43;8.50;99.90
11762;DHT22;5938;47.098;15.474;2022-10-16T03:05:48;8.50;99.90
11762;DHT22;5938;47.098;15.474;2022-10-16T03:09:51;8.40;99.90
11762;DHT22;5938;47.098;15.474;2022-10-16T03:13:56;8.40;99.90
11762;DHT22;5938;47.098;15.474;2022-10-16T03:17:59;8.30;99.90
11762;DHT22;5938;47.098;15.474;2022-10-16T03:22:04;8.30;99.90
11762;DHT22;5938;47.098;15.474;2022-10-16T03:26:09;8.20;99.90
11762;DHT22;5938;47.098;15.474;2022-10-16T03:30:12;8.10;99.90
11762;DHT22;5938;47.098;15.474;2022-10-16T03:34:15;8.10;99.90
11762;DHT22;5938;47.098;15.474;2022-10-16T03:38:21;8.10;99.90
11762;DHT22;5938;47.098;15.474;2022-10-16T03:42:24;8.00;99.90
11762;DHT22;5938;47.098;15.474;2022-10-16T03:46:27;8.00;99.90
11762;DHT22;5938;47.098;15.474;2022-10-16T03:50:31;8.30;99.90
11762;DHT22;5938;47.098;15.474;2022-10-16T03:54:36;8.30;99.90
11762;DHT22;5938;47.098;15.474;2022-10-16T03:58:39;8.40;99.90
11762;DHT22;5938;47.098;15.474;2022-10-16T04:02:42;8.40;99.90
11762;DHT22;5938;47.098;15.474;2022-10-16T04:06:47;8.50;99.90
11762;DHT22;5938;47.098;15.474;2022-10-16T04:10:51;8.60;99.90
11762;DHT22;5938;47.098;15.474;2022-10-16T04:14:55;8.60;99.90
11762;DHT22;5938;47.098;15.474;2022-10-16T04:19:27;8.70;99.90
11762;DHT22;5938;47.098;15.474;2022-10-16T04:23:30;8.80;99.90
11762;DHT22;5938;47.098;15.474;2022-10-16T04:27:35;8.90;99.90
11762;DHT22;5938;47.098;15.474;2022-10-16T04:31:44;8.90;99.90
11762;DHT22;5938;47.098;15.474;2022-10-16T04:35:47;8.80;99.90
11762;DHT22;5938;47.098;15.474;2022-10-16T04:39:52;8.80;99.90
11762;DHT22;5938;47.098;15.474;2022-10-16T04:43:57;8.90;99.90
11762;DHT22;5938;47.098;15.474;2022-10-16T04:48:00;8.80;99.90
11762;DHT22;5938;47.098;15.474;2022-10-16T04:52:04;8.90;99.90
11762;DHT22;5938;47.098;15.474;2022-10-16T04:56:07;8.90;99.90
11762;DHT22;5938;47.098;15.474;2022-10-16T05:00:13;8.80;99.90
11762;DHT22;5938;47.098;15.474;2022-10-16T05:04:16;8.70;99.90
11762;DHT22;5938;47.098;15.474;2022-10-16T05:08:19;8.60;99.90
11762;DHT22;5938;47.098;15.474;2022-10-16T05:12:24;8.70;99.90
11762;DHT22;5938;47.098;15.474;2022-10-16T05:16:29;8.60;99.90
11762;DHT22;5938;47.098;15.474;2022-10-16T05:20:33;8.60;99.90
11762;DHT22;5938;47.098;15.474;2022-10-16T05:24:36;8.70;99.90
11762;DHT22;5938;47.098;15.474;2022-10-16T05:28:40;8.70;99.90
11762;DHT22;5938;47.098;15.474;2022-10-16T05:32:47;8.80;99.90
11762;DHT22;5938;47.098;15.474;2022-10-16T05:36:51;8.90;99.90
11762;DHT22;5938;47.098;15.474;2022-10-16T05:40:54;9.00;99.90
11762;DHT22;5938;47.098;15.474;2022-10-16T05:44:58;9.00;99.90
11762;DHT22;5938;47.098;15.474;2022-10-16T05:49:03;9.10;99.90
11762;DHT22;5938;47.098;15.474;2022-10-16T05:53:06;9.10;99.90
11762;DHT22;5938;47.098;15.474;2022-10-16T05:57:09;9.10;99.90
11762;DHT22;5938;47.098;15.474;2022-10-16T06:01:14;9.10;99.90
11762;DHT22;5938;47.098;15.474;2022-10-16T06:05:19;9.10;99.90
11762;DHT22;5938;47.098;15.474;2022-10-16T06:09:23;9.00;99.90
11762;DHT22;5938;47.098;15.474;2022-10-16T06:13:26;8.80;99.90
11762;DHT22;5938;47.098;15.474;2022-10-16T06:17:29;8.80;99.90
11762;DHT22;5938;47.098;15.474;2022-10-16T06:21:34;8.80;99.90
11762;DHT22;5938;47.098;15.474;2022-10-16T06:25:38;8.70;99.90
11762;DHT22;5938;47.098;15.474;2022-10-16T06:29:41;8.70;99.90
11762;DHT22;5938;47.098;15.474;2022-10-16T06:33:45;8.70;99.90
11762;DHT22;5938;47.098;15.474;2022-10-16T06:37:52;8.80;99.90
11762;DHT22;5938;47.098;15.474;2022-10-16T06:41:55;8.80;99.90
11762;DHT22;5938;47.098;15.474;2022-10-16T06:45:59;8.90;99.90
11762;DHT22;5938;47.098;15.474;2022-10-16T06:50:04;8.90;99.90
11762;DHT22;5938;47.098;15.474;2022-10-16T06:54:11;9.10;99.90
11762;DHT22;5938;47.098;15.474;2022-10-16T06:58:14;9.10;99.90
11762;DHT22;5938;47.098;15.474;2022-10-16T07:02:18;9.30;99.90
11762;DHT22;5938;47.098;15.474;2022-10-16T07:06:54;9.40;99.90
11762;DHT22;5938;47.098;15.474;2022-10-16T07:11:00;9.60;99.90
11762;DHT22;5938;47.098;15.474;2022-10-16T07:15:05;9.70;99.90
11762;DHT22;5938;47.098;15.474;2022-10-16T07:19:09;9.80;99.90
11762;DHT22;5938;47.098;15.474;2022-10-16T07:23:15;10.00;99.90
11762;DHT22;5938;47.098;15.474;2022-10-16T07:27:20;10.40;99.90
11762;DHT22;5938;47.098;15.474;2022-10-16T07:31:26;10.70;99.90
11762;DHT22;5938;47.098;15.474;2022-10-16T07:35:30;11.00;99.90
11762;DHT22;5938;47.098;15.474;2022-10-16T07:39:34;11.30;99.90
11762;DHT22;5938;47.098;15.474;2022-10-16T07:43:39;11.50;99.90
11762;DHT22;5938;47.098;15.474;2022-10-16T07:47:43;11.70;99.90
11762;DHT22;5938;47.098;15.474;2022-10-16T07:51:47;11.90;99.90
11762;DHT22;5938;47.098;15.474;2022-10-16T07:55:50;12.30;99.90
11762;DHT22;5938;47.098;15.474;2022-10-16T07:59:57;12.50;99.90
11762;DHT22;5938;47.098;15.474;2022-10-16T08:04:01;12.90;99.90
11762;DHT22;5938;47.098;15.474;2022-10-16T08:08:13;13.30;99.90
11762;DHT22;5938;47.098;15.474;2022-10-16T08:12:18;13.50;99.90
11762;DHT22;5938;47.098;15.474;2022-10-16T08:16:24;13.70;99.90
11762;DHT22;5938;47.098;15.474;2022-10-16T08:20:31;14.10;99.90
11762;DHT22;5938;47.098;15.474;2022-10-16T08:24:37;14.30;99.90
11762;DHT22;5938;47.098;15.474;2022-10-16T08:28:44;14.60;99.90
11762;DHT22;5938;47.098;15.474;2022-10-16T08:32:50;14.90;99.90
11762;DHT22;5938;47.098;15.474;2022-10-16T08:36:54;15.50;99.90
11762;DHT22;5938;47.098;15.474;2022-10-16T08:41:09;16.40;99.90
11762;DHT22;5938;47.098;15.474;2022-10-16T08:45:32;17.80;99.90
11762;DHT22;5938;47.098;15.474;2022-10-16T08:49:40;18.70;99.90
11762;DHT22;5938;47.098;15.474;2022-10-16T08:53:49;19.10;99.90
11762;DHT22;5938;47.098;15.474;2022-10-16T08:57:52;18.60;99.90
11762;DHT22;5938;47.098;15.474;2022-10-16T09:01:56;20.00;99.90
11762;DHT22;5938;47.098;15.474;2022-10-16T09:06:17;21.30;99.90
11762;DHT22;5938;47.098;15.474;2022-10-16T09:10:33;21.70;99.90
11762;DHT22;5938;47.098;15.474;2022-10-16T09:15:01;20.80;99.40
11762;DHT22;5938;47.098;15.474;2022-10-16T09:19:15;19.90;99.90
11762;DHT22;5938;47.098;15.474;2022-10-16T09:23:26;19.90;99.90
11762;DHT22;5938;47.098;15.474;2022-10-16T09:27:30;19.90;99.70
11762;DHT22;5938;47.098;15.474;2022-10-16T09:31:36;21.00;99.90
11762;DHT22;5938;47.098;15.474;2022-10-16T09:35:42;21.50;99.00
11762;DHT22;5938;47.098;15.474;2022-10-16T09:39:48;21.60;97.70
11762;DHT22;5938;47.098;15.474;2022-10-16T09:43:56;21.70;97.50
11762;DHT22;5938;47.098;15.474;2022-10-16T09:48:10;23.10;96.20
11762;DHT22;5938;47.098;15.474;2022-10-16T09:52:15;23.50;95.70
11762;DHT22;5938;47.098;15.474;2022-10-16T09:56:29;23.40;94.40
11762;DHT22;5938;47.098;15.474;2022-10-16T10:00:34;23.80;93.90
11762;DHT22;5938;47.098;15.474;2022-10-16T10:04:40;23.50;93.50
11762;DHT22;5938;47.098;15.474;2022-10-16T10:08:58;23.00;93.10
11762;DHT22;5938;47.098;15.474;2022-10-16T10:13:14;22.40;94.60
11762;DHT22;5938;47.098;15.474;2022-10-16T10:17:23;22.10;95.30
11762;DHT22;5938;47.098;15.474;2022-10-16T10:21:26;22.10;94.00
11762;DHT22;5938;47.098;15.474;2022-10-16T10:25:39;23.40;93.20
11762;DHT22;5938;47.098;15.474;2022-10-16T10:29:52;24.90;91.70
11762;DHT22;5938;47.098;15.474;2022-10-16T10:34:01;25.60;89.30
11762;DHT22;5938;47.098;15.474;2022-10-16T10:38:20;26.80;87.70
11762;DHT22;5938;47.098;15.474;2022-10-16T10:42:30;27.40;85.80
11762;DHT22;5938;47.098;15.474;2022-10-16T10:46:41;28.70;82.20
11762;DHT22;5938;47.098;15.474;2022-10-16T10:50:50;30.50;79.70
11762;DHT22;5938;47.098;15.474;2022-10-16T10:55:03;30.50;75.00
11762;DHT22;5938;47.098;15.474;2022-10-16T11:04:15;31.80;70.00
11762;DHT22;5938;47.098;15.474;2022-10-16T11:08:27;31.30;72.20
11762;DHT22;5938;47.098;15.474;2022-10-16T11:12:37;31.90;70.70
11762;DHT22;5938;47.098;15.474;2022-10-16T11:16:47;31.90;69.60
11762;DHT22;5938;47.098;15.474;2022-10-16T11:20:59;32.40;70.00
11762;DHT22;5938;47.098;15.474;2022-10-16T11:25:12;32.30;69.90
11762;DHT22;5938;47.098;15.474;2022-10-16T11:29:20;33.70;69.20
11762;DHT22;5938;47.098;15.474;2022-10-16T11:33:30;34.50;65.90
11762;DHT22;5938;47.098;15.474;2022-10-16T11:37:41;34.00;65.50
11762;DHT22;5938;47.098;15.474;2022-10-16T11:41:48;32.90;66.60
11762;DHT22;5938;47.098;15.474;2022-10-16T11:45:53;33.00;65.20
11762;DHT22;5938;47.098;15.474;2022-10-16T11:50:01;33.50;65.10
11762;DHT22;5938;47.098;15.474;2022-10-16T11:54:14;34.60;65.40
11762;DHT22;5938;47.098;15.474;2022-10-16T11:58:24;34.50;62.20
11762;DHT22;5938;47.098;15.474;2022-10-16T12:02:40;34.80;62.80
11762;DHT22;5938;47.098;15.474;2022-10-16T12:06:52;34.80;62.50
11762;DHT22;5938;47.098;15.474;2022-10-16T12:11:09;35.20;60.60
11762;DHT22;5938;47.098;15.474;2022-10-16T12:15:25;35.30;59.90
11762;DHT22;5938;47.098;15.474;2022-10-16T12:19:57;35.10;60.50
11762;DHT22;5938;47.098;15.474;2022-10-16T12:24:03;34.20;59.90
11762;DHT22;5938;47.098;15.474;2022-10-16T12:28:20;34.70;60.50
11762;DHT22;5938;47.098;15.474;2022-10-16T12:32:30;34.50;60.10
11762;DHT22;5938;47.098;15.474;2022-10-16T12:36:48;35.20;59.20
11762;DHT22;5938;47.098;15.474;2022-10-16T12:40:58;35.80;57.10
11762;DHT22;5938;47.098;15.474;2022-10-16T12:45:22;35.00;57.10
11762;DHT22;5938;47.098;15.474;2022-10-16T12:49:35;35.60;57.20
11762;DHT22;5938;47.098;15.474;2022-10-16T12:53:39;35.70;55.90
11762;DHT22;5938;47.098;15.474;2022-10-16T12:57:55;35.20;56.20
11762;DHT22;5938;47.098;15.474;2022-10-16T13:02:42;34.10;56.80
11762;DHT22;5938;47.098;15.474;2022-10-16T13:06:58;34.10;57.90
11762;DHT22;5938;47.098;15.474;2022-10-16T13:11:11;34.60;60.20
11762;DHT22;5938;47.098;15.474;2022-10-16T13:15:37;31.30;65.50
11762;DHT22;5938;47.098;15.474;2022-10-16T13:19:48;29.20;67.70
11762;DHT22;5938;47.098;15.474;2022-10-16T13:24:01;28.60;72.00
11762;DHT22;5938;47.098;15.474;2022-10-16T13:28:07;29.50;69.00
11762;DHT22;5938;47.098;15.474;2022-10-16T13:32:12;31.60;65.00
11762;DHT22;5938;47.098;15.474;2022-10-16T13:36:22;31.10;64.90
11762;DHT22;5938;47.098;15.474;2022-10-16T13:40:25;28.00;72.40
11762;DHT22;5938;47.098;15.474;2022-10-16T13:44:35;25.80;79.80
11762;DHT22;5938;47.098;15.474;2022-10-16T13:48:39;24.00;83.60
11762;DHT22;5938;47.098;15.474;2022-10-16T13:52:45;22.80;89.50
11762;DHT22;5938;47.098;15.474;2022-10-16T13:56:48;22.10;89.20
11762;DHT22;5938;47.098;15.474;2022-10-16T14:01:14;22.00;90.90
11762;DHT22;5938;47.098;15.474;2022-10-16T14:05:18;22.20;91.50
11762;DHT22;5938;47.098;15.474;2022-10-16T14:09:25;23.80;86.50
11762;DHT22;5938;47.098;15.474;2022-10-16T14:13:32;26.70;80.20
11762;DHT22;5938;47.098;15.474;2022-10-16T14:17:44;28.00;77.90
11762;DHT22;5938;47.098;15.474;2022-10-16T14:21:49;25.90;80.30
11762;DHT22;5938;47.098;15.474;2022-10-16T14:25:54;23.80;86.00
11762;DHT22;5938;47.098;15.474;2022-10-16T14:30:18;22.20;90.40
11762;DHT22;5938;47.098;15.474;2022-10-16T14:34:31;21.30;92.20
11762;DHT22;5938;47.098;15.474;2022-10-16T14:38:37;20.70;93.00
11762;DHT22;5938;47.098;15.474;2022-10-16T14:42:43;20.10;95.40
11762;DHT22;5938;47.098;15.474;2022-10-16T14:46:47;19.70;96.50
11762;DHT22;5938;47.098;15.474;2022-10-16T14:50:50;19.40;97.80
11762;DHT22;5938;47.098;15.474;2022-10-16T14:54:54;19.10;98.40
11762;DHT22;5938;47.098;15.474;2022-10-16T14:59:00;18.90;99.90
11762;DHT22;5938;47.098;15.474;2022-10-16T15:03:03;18.70;99.90
11762;DHT22;5938;47.098;15.474;2022-10-16T15:07:07;18.50;99.90
11762;DHT22;5938;47.098;15.474;2022-10-16T15:11:13;18.30;99.90
11762;DHT22;5938;47.098;15.474;2022-10-16T15:15:32;18.10;99.90
11762;DHT22;5938;47.098;15.474;2022-10-16T15:19:36;17.80;99.90
11762;DHT22;5938;47.098;15.474;2022-10-16T15:23:40;17.60;99.90
11762;DHT22;5938;47.098;15.474;2022-10-16T15:27:43;17.30;99.90
11762;DHT22;5938;47.098;15.474;2022-10-16T15:31:48;17.10;99.90
11762;DHT22;5938;47.098;15.474;2022-10-16T15:35:52;16.90;99.90
11762;DHT22;5938;47.098;15.474;2022-10-16T15:39:56;16.70;99.90
11762;DHT22;5938;47.098;15.474;2022-10-16T15:43:59;16.50;99.90
11762;DHT22;5938;47.098;15.474;2022-10-16T15:48:10;16.30;99.90
11762;DHT22;5938;47.098;15.474;2022-10-16T15:52:14;16.10;99.90
11762;DHT22;5938;47.098;15.474;2022-10-16T15:56:18;16.00;99.90
11762;DHT22;5938;47.098;15.474;2022-10-16T16:00:21;15.70;99.90
11762;DHT22;5938;47.098;15.474;2022-10-16T16:04:31;15.50;99.90
11762;DHT22;5938;47.098;15.474;2022-10-16T16:08:50;15.30;99.90
11762;DHT22;5938;47.098;15.474;2022-10-16T16:12:53;15.10;99.90
11762;DHT22;5938;47.098;15.474;2022-10-16T16:16:57;14.90;99.90
11762;DHT22;5938;47.098;15.474;2022-10-16T16:21:03;14.70;99.90
11762;DHT22;5938;47.098;15.474;2022-10-16T16:25:07;14.50;99.90
11762;DHT22;5938;47.098;15.474;2022-10-16T16:29:12;14.40;99.90
11762;DHT22;5938;47.098;15.474;2022-10-16T16:33:16;14.20;99.90
11762;DHT22;5938;47.098;15.474;2022-10-16T16:37:21;14.10;99.90
11762;DHT22;5938;47.098;15.474;2022-10-16T16:41:28;13.90;99.90
11762;DHT22;5938;47.098;15.474;2022-10-16T16:45:35;13.80;99.90
11762;DHT22;5938;47.098;15.474;2022-10-16T16:49:39;13.60;99.90
11762;DHT22;5938;47.098;15.474;2022-10-16T16:53:46;13.60;99.90
11762;DHT22;5938;47.098;15.474;2022-10-16T16:57:50;13.40;99.90
11762;DHT22;5938;47.098;15.474;2022-10-16T17:01:54;13.30;99.90
11762;DHT22;5938;47.098;15.474;2022-10-16T17:05:59;13.20;99.90
11762;DHT22;5938;47.098;15.474;2022-10-16T17:10:06;13.20;99.90
11762;DHT22;5938;47.098;15.474;2022-10-16T17:14:11;13.00;99.90
11762;DHT22;5938;47.098;15.474;2022-10-16T17:18:16;12.90;99.90
11762;DHT22;5938;47.098;15.474;2022-10-16T17:22:21;12.90;99.90
11762;DHT22;5938;47.098;15.474;2022-10-16T17:26:28;12.80;99.90
11762;DHT22;5938;47.098;15.474;2022-10-16T17:30:33;12.60;99.90
11762;DHT22;5938;47.098;15.474;2022-10-16T17:34:40;12.60;99.90
11762;DHT22;5938;47.098;15.474;2022-10-16T17:38:45;12.50;99.90
11762;DHT22;5938;47.098;15.474;2022-10-16T17:42:52;12.50;99.90
11762;DHT22;5938;47.098;15.474;2022-10-16T17:46:58;12.40;99.90
11762;DHT22;5938;47.098;15.474;2022-10-16T17:51:04;12.30;99.90
11762;DHT22;5938;47.098;15.474;2022-10-16T17:55:09;12.30;99.90
11762;DHT22;5938;47.098;15.474;2022-10-16T17:59:16;12.30;99.90
11762;DHT22;5938;47.098;15.474;2022-10-16T18:03:25;12.20;99.90
11762;DHT22;5938;47.098;15.474;2022-10-16T18:07:31;12.00;99.90
11762;DHT22;5938;47.098;15.474;2022-10-16T18:11:36;12.00;99.90
11762;DHT22;5938;47.098;15.474;2022-10-16T18:15:42;12.00;99.90
11762;DHT22;5938;47.098;15.474;2022-10-16T18:19:47;11.80;99.90
11762;DHT22;5938;47.098;15.474;2022-10-16T18:23:51;11.80;99.90
11762;DHT22;5938;47.098;15.474;2022-10-16T18:27:56;11.80;99.90
11762;DHT22;5938;47.098;15.474;2022-10-16T18:32:02;11.80;99.90
11762;DHT22;5938;47.098;15.474;2022-10-16T18:36:08;11.70;99.90
11762;DHT22;5938;47.098;15.474;2022-10-16T18:40:14;11.60;99.90
11762;DHT22;5938;47.098;15.474;2022-10-16T18:44:18;11.60;99.90
11762;DHT22;5938;47.098;15.474;2022-10-16T18:48:44;11.50;99.90
11762;DHT22;5938;47.098;15.474;2022-10-16T18:52:51;11.40;99.90
11762;DHT22;5938;47.098;15.474;2022-10-16T18:56:55;11.40;99.90
11762;DHT22;5938;47.098;15.474;2022-10-16T19:01:05;11.30;99.90
11762;DHT22;5938;47.098;15.474;2022-10-16T19:05:11;11.30;99.90
11762;DHT22;5938;47.098;15.474;2022-10-16T19:09:19;11.30;99.90
11762;DHT22;5938;47.098;15.474;2022-10-16T19:13:24;11.20;99.90
11762;DHT22;5938;47.098;15.474;2022-10-16T19:17:29;11.20;99.90
11762;DHT22;5938;47.098;15.474;2022-10-16T19:21:38;11.20;99.90
11762;DHT22;5938;47.098;15.474;2022-10-16T19:25:43;11.10;99.90
11762;DHT22;5938;47.098;15.474;2022-10-16T19:29:47;11.00;99.90
11762;DHT22;5938;47.098;15.474;2022-10-16T19:33:51;11.00;99.90
11762;DHT22;5938;47.098;15.474;2022-10-16T19:37:57;11.00;99.90
11762;DHT22;5938;47.098;15.474;2022-10-16T19:42:01;10.90;99.90
11762;DHT22;5938;47.098;15.474;2022-10-16T19:46:06;10.80;99.90
11762;DHT22;5938;47.098;15.474;2022-10-16T19:50:11;10.80;99.90
11762;DHT22;5938;47.098;15.474;2022-10-16T19:54:16;10.80;99.90
11762;DHT22;5938;47.098;15.474;2022-10-16T19:58:20;10.70;99.90
11762;DHT22;5938;47.098;15.474;2022-10-16T20:02:23;10.70;99.90
11762;DHT22;5938;47.098;15.474;2022-10-16T20:06:27;10.60;99.90
11762;DHT22;5938;47.098;15.474;2022-10-16T20:10:32;10.50;99.90
11762;DHT22;5938;47.098;15.474;2022-10-16T20:14:36;10.50;99.90
11762;DHT22;5938;47.098;15.474;2022-10-16T20:18:39;10.50;99.90
11762;DHT22;5938;47.098;15.474;2022-10-16T20:22:43;10.40;99.90
11762;DHT22;5938;47.098;15.474;2022-10-16T20:26:49;10.40;99.90
11762;DHT22;5938;47.098;15.474;2022-10-16T20:30:53;10.40;99.90
11762;DHT22;5938;47.098;15.474;2022-10-16T20:34:57;10.30;99.90
11762;DHT22;5938;47.098;15.474;2022-10-16T20:39:07;10.20;99.90
11762;DHT22;5938;47.098;15.474;2022-10-16T20:43:13;10.20;99.90
11762;DHT22;5938;47.098;15.474;2022-10-16T20:47:17;10.20;99.90
11762;DHT22;5938;47.098;15.474;2022-10-16T20:51:23;10.20;99.90
11762;DHT22;5938;47.098;15.474;2022-10-16T20:55:36;10.20;99.90
11762;DHT22;5938;47.098;15.474;2022-10-16T20:59:41;10.20;99.90
11762;DHT22;5938;47.098;15.474;2022-10-16T21:03:49;10.10;99.90
11762;DHT22;5938;47.098;15.474;2022-10-16T21:07:52;10.10;99.90
11762;DHT22;5938;47.098;15.474;2022-10-16T21:11:56;10.10;99.90
11762;DHT22;5938;47.098;15.474;2022-10-16T21:16:01;10.00;99.90
11762;DHT22;5938;47.098;15.474;2022-10-16T21:20:07;10.00;99.90
11762;DHT22;5938;47.098;15.474;2022-10-16T21:24:11;10.00;99.90
11762;DHT22;5938;47.098;15.474;2022-10-16T21:28:18;9.90;99.90
11762;DHT22;5938;47.098;15.474;2022-10-16T21:32:22;9.90;99.90
11762;DHT22;5938;47.098;15.474;2022-10-16T21:36:28;9.90;99.90
11762;DHT22;5938;47.098;15.474;2022-10-16T21:40:31;9.80;99.90
11762;DHT22;5938;47.098;15.474;2022-10-16T21:44:35;9.80;99.90
11762;DHT22;5938;47.098;15.474;2022-10-16T21:48:54;9.70;99.90
11762;DHT22;5938;47.098;15.474;2022-10-16T21:52:58;9.70;99.90
11762;DHT22;5938;47.098;15.474;2022-10-16T21:57:01;9.70;99.90
11762;DHT22;5938;47.098;15.474;2022-10-16T22:01:11;9.60;99.90
11762;DHT22;5938;47.098;15.474;2022-10-16T22:05:16;9.70;99.90
11762;DHT22;5938;47.098;15.474;2022-10-16T22:09:20;9.60;99.90
11762;DHT22;5938;47.098;15.474;2022-10-16T22:13:23;9.60;99.90
11762;DHT22;5938;47.098;15.474;2022-10-16T22:17:26;9.50;99.90
11762;DHT22;5938;47.098;15.474;2022-10-16T22:21:33;9.50;99.90
11762;DHT22;5938;47.098;15.474;2022-10-16T22:25:36;9.40;99.90
11762;DHT22;5938;47.098;15.474;2022-10-16T22:29:40;9.40;99.90
11762;DHT22;5938;47.098;15.474;2022-10-16T22:33:44;9.40;99.90
11762;DHT22;5938;47.098;15.474;2022-10-16T22:37:48;9.40;99.90
11762;DHT22;5938;47.098;15.474;2022-10-16T22:41:52;9.30;99.90
11762;DHT22;5938;47.098;15.474;2022-10-16T22:46:00;9.30;99.90
11762;DHT22;5938;47.098;15.474;2022-10-16T22:50:05;9.30;99.90
11762;DHT22;5938;47.098;15.474;2022-10-16T22:54:10;9.20;99.90
11762;DHT22;5938;47.098;15.474;2022-10-16T22:58:13;9.20;99.90
11762;DHT22;5938;47.098;15.474;2022-10-16T23:02:16;9.20;99.90
11762;DHT22;5938;47.098;15.474;2022-10-16T23:06:20;9.10;99.90
11762;DHT22;5938;47.098;15.474;2022-10-16T23:10:26;9.10;99.90
11762;DHT22;5938;47.098;15.474;2022-10-16T23:14:30;9.10;99.90
11762;DHT22;5938;47.098;15.474;2022-10-16T23:18:34;9.10;99.90
11762;DHT22;5938;47.098;15.474;2022-10-16T23:22:37;9.00;99.90
11762;DHT22;5938;47.098;15.474;2022-10-16T23:26:42;8.90;99.90
11762;DHT22;5938;47.098;15.474;2022-10-16T23:30:45;8.90;99.90
11762;DHT22;5938;47.098;15.474;2022-10-16T23:34:49;8.90;99.90
11762;DHT22;5938;47.098;15.474;2022-10-16T23:38:52;8.90;99.90
11762;DHT22;5938;47.098;15.474;2022-10-16T23:42:57;8.80;99.90
11762;DHT22;5938;47.098;15.474;2022-10-16T23:47:01;8.80;99.90
11762;DHT22;5938;47.098;15.474;2022-10-16T23:51:05;8.80;99.90
11762;DHT22;5938;47.098;15.474;2022-10-16T23:55:09;8.80;99.90
11762;DHT22;5938;47.098;15.474;2022-10-16T23:59:13;8.80;99.90
